createdAt,value
2022-12-27T00:01:13.477Z,5.03
2022-12-27T00:03:42.313Z,4.92
2022-12-27T00:06:12.706Z,4.89
2022-12-27T00:08:43.192Z,4.87
2022-12-27T00:11:14.076Z,4.74
2022-12-27T00:13:42.778Z,4.68
2022-12-27T00:16:13.948Z,4.74
2022-12-27T00:18:43.189Z,4.66
2022-12-27T00:21:14.096Z,4.61
2022-12-27T00:23:46.556Z,4.59
2022-12-27T00:26:17.931Z,4.52
2022-12-27T00:28:46.904Z,4.49
2022-12-27T00:31:16.191Z,4.47
2022-12-27T00:33:46.893Z,4.37
2022-12-27T00:36:17.813Z,4.35
2022-12-27T00:38:48.452Z,4.29
2022-12-27T00:41:17.663Z,4.22
2022-12-27T00:43:46.635Z,4.21
2022-12-27T00:46:15.917Z,4.17
2022-12-27T00:48:45.369Z,4.12
2022-12-27T00:51:16.010Z,4.07
2022-12-27T00:53:44.644Z,4.05
2022-12-27T00:56:17.747Z,4.07
2022-12-27T00:58:46.103Z,4.00
2022-12-27T01:01:17.109Z,3.94
2022-12-27T01:03:45.980Z,3.91
2022-12-27T01:06:18.406Z,3.94
2022-12-27T01:08:47.870Z,3.96
2022-12-27T01:11:19.328Z,3.83
2022-12-27T01:13:47.932Z,3.83
2022-12-27T01:16:19.253Z,3.79
2022-12-27T01:18:48.670Z,3.73
2022-12-27T01:21:21.884Z,3.75
2022-12-27T01:23:50.994Z,3.68
2022-12-27T01:26:24.138Z,3.66
2022-12-27T01:28:54.509Z,3.65
2022-12-27T01:31:27.736Z,3.62
2022-12-27T01:33:58.029Z,3.63
2022-12-27T01:36:28.228Z,3.62
2022-12-27T01:38:56.554Z,3.65
2022-12-27T01:41:47.899Z,3.60
2022-12-27T01:44:57.212Z,3.54
2022-12-27T01:47:36.599Z,3.51
2022-12-27T01:50:14.119Z,3.45
2022-12-27T01:52:48.158Z,3.42
2022-12-27T01:55:24.341Z,3.39
2022-12-27T01:58:00.802Z,3.35
2022-12-27T02:00:29.121Z,3.33
2022-12-27T02:02:58.199Z,3.30
2022-12-27T02:05:27.351Z,3.27
2022-12-27T02:08:20.683Z,3.19
2022-12-27T02:10:51.894Z,3.14
2022-12-27T02:13:22.675Z,3.18
2022-12-27T02:15:50.767Z,3.17
2022-12-27T02:18:18.880Z,3.14
2022-12-27T02:21:27.733Z,3.09
2022-12-27T02:24:40.976Z,3.05
2022-12-27T02:27:25.499Z,3.06
2022-12-27T02:30:04.190Z,3.01
2022-12-27T02:32:41.584Z,2.95
2022-12-27T02:35:18.141Z,2.89
2022-12-27T02:37:52.870Z,2.87
2022-12-27T02:40:43.412Z,2.90
2022-12-27T02:43:29.364Z,2.92
2022-12-27T02:46:29.381Z,2.83
2022-12-27T02:49:17.241Z,2.83
2022-12-27T02:52:21.378Z,2.81
2022-12-27T02:55:16.728Z,2.82
2022-12-27T02:57:57.712Z,2.79
2022-12-27T03:00:44.696Z,2.70
2022-12-27T03:03:45.948Z,2.81
2022-12-27T03:07:05.471Z,2.69
2022-12-27T03:10:07.301Z,2.75
2022-12-27T03:13:07.807Z,2.76
2022-12-27T03:16:06.760Z,2.78
2022-12-27T03:19:38.517Z,2.74
2022-12-27T03:22:27.827Z,2.74
2022-12-27T03:25:16.626Z,2.72
2022-12-27T03:28:09.997Z,2.75
2022-12-27T03:30:58.360Z,2.80
2022-12-27T03:33:31.563Z,2.74
2022-12-27T03:36:28.117Z,2.73
2022-12-27T03:39:07.435Z,2.75
2022-12-27T03:42:11.418Z,2.76
2022-12-27T03:44:40.658Z,2.72
2022-12-27T03:47:17.407Z,2.77
2022-12-27T03:49:51.328Z,2.72
2022-12-27T03:52:29.046Z,2.73
2022-12-27T03:54:58.638Z,2.79
2022-12-27T03:57:28.084Z,2.74
2022-12-27T03:59:56.340Z,2.74
2022-12-27T04:02:25.694Z,2.70
2022-12-27T04:04:53.943Z,2.75
2022-12-27T04:07:23.279Z,2.75
2022-12-27T04:10:08.907Z,2.72
2022-12-27T04:12:54.218Z,2.72
2022-12-27T04:15:39.782Z,2.74
2022-12-27T04:18:25.429Z,2.77
2022-12-27T04:21:10.737Z,2.73
2022-12-27T04:23:57.631Z,2.80
2022-12-27T04:26:42.869Z,2.87
2022-12-27T04:29:28.327Z,2.94
2022-12-27T04:32:13.685Z,2.96
2022-12-27T04:34:42.723Z,2.97
2022-12-27T04:37:13.797Z,2.96
2022-12-27T04:40:03.921Z,2.93
2022-12-27T04:42:49.407Z,2.96
2022-12-27T04:45:35.425Z,2.95
2022-12-27T04:48:21.232Z,2.94
2022-12-27T04:51:07.203Z,3.01
2022-12-27T04:53:52.616Z,2.96
2022-12-27T04:56:21.914Z,3.00
2022-12-27T04:59:03.794Z,3.03
2022-12-27T05:01:49.464Z,3.03
2022-12-27T05:04:18.077Z,2.98
2022-12-27T05:06:46.217Z,3.01
2022-12-27T05:09:31.781Z,3.00
2022-12-27T05:14:43.182Z,3.01
2022-12-27T05:17:11.213Z,3.04
2022-12-27T05:19:39.364Z,3.05
2022-12-27T05:22:24.985Z,3.09
2022-12-27T05:25:10.634Z,3.11
2022-12-27T05:27:40.059Z,3.12
2022-12-27T05:30:09.752Z,3.05
2022-12-27T05:32:37.803Z,3.09
2022-12-27T05:35:07.001Z,3.09
2022-12-27T05:37:35.108Z,3.16
2022-12-27T05:40:03.129Z,3.21
2022-12-27T05:42:32.203Z,3.22
2022-12-27T05:45:01.695Z,3.20
2022-12-27T05:47:29.604Z,3.15
2022-12-27T05:49:57.576Z,3.13
2022-12-27T05:52:26.088Z,3.12
2022-12-27T05:54:57.431Z,3.08
2022-12-27T05:57:26.107Z,3.05
2022-12-27T05:59:57.672Z,3.00
2022-12-27T06:02:27.371Z,2.99
2022-12-27T06:04:55.492Z,3.01
2022-12-27T06:07:23.542Z,3.05
2022-12-27T06:09:51.605Z,3.04
2022-12-27T06:12:19.596Z,3.04
2022-12-27T06:14:47.552Z,3.06
2022-12-27T06:17:15.525Z,3.01
2022-12-27T06:19:44.845Z,3.01
2022-12-27T06:22:12.889Z,3.09
2022-12-27T06:24:41.062Z,3.10
2022-12-27T06:27:09.135Z,3.09
2022-12-27T06:29:37.099Z,3.08
2022-12-27T06:32:05.752Z,3.06
2022-12-27T06:34:34.066Z,3.09
2022-12-27T06:37:03.397Z,3.10
2022-12-27T06:39:31.509Z,3.19
2022-12-27T06:41:59.963Z,3.28
2022-12-27T06:44:28.063Z,3.28
2022-12-27T06:46:56.339Z,3.36
2022-12-27T06:49:25.752Z,3.36
2022-12-27T06:51:59.300Z,3.29
2022-12-27T06:54:30.541Z,3.27
2022-12-27T06:56:58.592Z,3.30
2022-12-27T06:59:26.680Z,3.27
2022-12-27T07:01:54.885Z,3.26
2022-12-27T07:04:22.961Z,3.28
2022-12-27T07:06:50.962Z,3.38
2022-12-27T07:09:19.264Z,3.42
2022-12-27T07:11:48.598Z,3.50
2022-12-27T07:14:16.623Z,3.57
2022-12-27T07:16:44.634Z,3.65
2022-12-27T07:19:12.866Z,3.61
2022-12-27T07:21:40.904Z,3.63
2022-12-27T07:24:09.249Z,3.69
2022-12-27T07:26:37.343Z,3.69
2022-12-27T07:29:06.728Z,3.63
2022-12-27T07:31:34.837Z,3.62
2022-12-27T07:34:04.712Z,3.59
2022-12-27T07:36:38.192Z,3.60
2022-12-27T07:39:08.159Z,3.66
2022-12-27T07:41:37.237Z,3.71
2022-12-27T07:44:08.675Z,3.76
2022-12-27T07:46:37.335Z,3.72
2022-12-27T07:49:05.318Z,3.79
2022-12-27T07:51:33.339Z,3.76
2022-12-27T07:54:01.527Z,3.79
2022-12-27T07:56:30.425Z,3.75
2022-12-27T07:59:01.670Z,3.83
2022-12-27T08:02:02.733Z,4.11
2022-12-27T08:04:31.750Z,3.95
2022-12-27T08:07:05.399Z,3.81
2022-12-27T08:09:38.704Z,3.73
2022-12-27T08:12:07.951Z,3.47
2022-12-27T08:14:36.009Z,3.52
2022-12-27T08:17:15.982Z,3.54
2022-12-27T08:19:44.212Z,3.54
2022-12-27T08:22:12.219Z,3.61
2022-12-27T08:24:41.648Z,3.69
2022-12-27T08:27:10.475Z,3.71
2022-12-27T08:29:39.985Z,3.71
2022-12-27T08:32:09.401Z,3.79
2022-12-27T08:34:39.106Z,3.82
2022-12-27T08:37:06.893Z,3.82
2022-12-27T08:39:34.982Z,3.86
2022-12-27T08:42:02.943Z,3.86
2022-12-27T08:44:30.963Z,3.85
2022-12-27T08:46:59.506Z,3.91
2022-12-27T08:49:28.852Z,3.93
2022-12-27T08:51:56.879Z,3.94
2022-12-27T08:54:24.997Z,3.92
2022-12-27T08:56:53.203Z,3.95
2022-12-27T08:59:21.149Z,4.00
2022-12-27T09:01:49.274Z,4.00
2022-12-27T09:04:17.340Z,4.05
2022-12-27T09:06:47.692Z,4.03
2022-12-27T09:09:15.830Z,3.98
2022-12-27T09:11:43.836Z,4.01
2022-12-27T09:14:12.220Z,4.07
2022-12-27T09:16:40.691Z,4.15
2022-12-27T09:19:08.927Z,4.14
2022-12-27T09:21:40.428Z,4.12
2022-12-27T09:24:12.464Z,4.13
2022-12-27T09:26:40.641Z,3.97
2022-12-27T09:29:08.946Z,4.01
2022-12-27T09:31:37.009Z,4.05
2022-12-27T09:34:05.101Z,4.22
2022-12-27T09:36:33.320Z,4.45
2022-12-27T09:39:01.376Z,4.73
2022-12-27T09:42:44.996Z,4.68
2022-12-27T09:44:51.805Z,4.75
2022-12-27T09:47:29.036Z,4.76
2022-12-27T09:50:04.258Z,4.70
2022-12-27T09:52:38.988Z,4.67
2022-12-27T09:55:15.983Z,4.76
2022-12-27T09:57:47.348Z,4.71
2022-12-27T10:00:34.803Z,4.76
2022-12-27T10:03:07.326Z,4.76
2022-12-27T10:05:38.152Z,4.81
2022-12-27T10:08:30.830Z,4.83
2022-12-27T10:11:33.574Z,4.84
2022-12-27T10:14:19.381Z,4.87
2022-12-27T10:17:01.046Z,5.09
2022-12-27T10:19:44.646Z,5.17
2022-12-27T10:22:30.950Z,5.37
2022-12-27T10:25:04.030Z,5.41
2022-12-27T10:27:32.776Z,5.34
2022-12-27T10:30:04.701Z,5.39
2022-12-27T10:32:32.745Z,5.40
2022-12-27T10:35:05.243Z,5.40
2022-12-27T10:37:33.942Z,5.35
2022-12-27T10:40:13.229Z,5.33
2022-12-27T10:42:46.939Z,5.31
2022-12-27T10:45:36.425Z,5.20
2022-12-27T10:48:23.628Z,5.08
2022-12-27T10:50:57.822Z,5.12
2022-12-27T10:53:34.948Z,5.17
2022-12-27T10:56:25.998Z,5.26
2022-12-27T10:58:59.197Z,5.21
2022-12-27T11:01:32.584Z,5.29
2022-12-27T11:04:20.607Z,5.21
2022-12-27T11:06:51.535Z,5.17
2022-12-27T11:09:29.231Z,5.11
2022-12-27T11:12:24.107Z,5.23
2022-12-27T11:14:59.260Z,5.14
2022-12-27T11:17:36.280Z,5.12
2022-12-27T11:20:22.019Z,5.19
2022-12-27T11:22:55.216Z,5.18
2022-12-27T11:25:24.295Z,5.23
2022-12-27T11:27:57.045Z,5.28
2022-12-27T11:30:30.850Z,5.19
2022-12-27T11:33:07.282Z,5.29
2022-12-27T11:35:48.730Z,5.32
2022-12-27T11:38:26.120Z,5.38
2022-12-27T11:41:05.309Z,5.34
2022-12-27T11:43:41.711Z,5.32
2022-12-27T11:46:25.641Z,5.33
2022-12-27T11:48:58.363Z,5.28
2022-12-27T11:52:00.805Z,5.25
2022-12-27T11:55:04.747Z,5.27
2022-12-27T11:58:08.739Z,5.34
2022-12-27T12:00:59.090Z,5.39
2022-12-27T12:04:04.651Z,5.41
2022-12-27T12:06:50.289Z,5.31
2022-12-27T12:10:07.605Z,5.41
2022-12-27T12:13:27.801Z,5.39
2022-12-27T12:16:15.889Z,5.46
2022-12-27T12:19:01.444Z,5.44
2022-12-27T12:21:37.843Z,5.51
2022-12-27T12:25:08.829Z,5.54
2022-12-27T12:28:13.105Z,5.71
2022-12-27T12:31:16.317Z,5.79
2022-12-27T12:34:11.079Z,6.11
2022-12-27T12:37:02.300Z,6.11
2022-12-27T12:39:58.199Z,6.10
2022-12-27T12:42:43.742Z,5.99
2022-12-27T12:45:56.659Z,5.93
2022-12-27T12:48:52.344Z,5.83
2022-12-27T12:51:45.411Z,5.88
2022-12-27T12:54:42.427Z,5.83
2022-12-27T12:57:29.164Z,5.86
2022-12-27T13:00:27.765Z,5.85
2022-12-27T13:03:51.128Z,5.88
2022-12-27T13:06:46.033Z,5.78
2022-12-27T13:09:35.565Z,5.79
2022-12-27T13:12:13.106Z,5.74
2022-12-27T13:15:20.440Z,5.69
2022-12-27T13:18:07.180Z,5.73
2022-12-27T13:21:00.209Z,5.63
2022-12-27T13:23:44.428Z,5.68
2022-12-27T13:26:26.126Z,5.69
2022-12-27T13:29:24.102Z,5.68
2022-12-27T13:32:07.958Z,5.67
2022-12-27T13:34:51.180Z,5.69
2022-12-27T13:37:38.547Z,5.77
2022-12-27T13:40:46.955Z,5.72
2022-12-27T13:43:43.499Z,5.71
2022-12-27T13:46:43.283Z,5.72
2022-12-27T13:49:49.262Z,5.76
2022-12-27T13:52:48.278Z,5.73
2022-12-27T13:55:44.085Z,5.72
2022-12-27T13:58:59.813Z,5.74
2022-12-27T14:01:56.432Z,5.71
2022-12-27T14:05:13.682Z,5.75
2022-12-27T14:08:01.490Z,5.73
2022-12-27T14:10:40.906Z,5.77
2022-12-27T14:13:10.776Z,5.75
2022-12-27T14:16:19.342Z,5.70
2022-12-27T14:19:08.422Z,5.72
2022-12-27T14:22:12.366Z,5.64
2022-12-27T14:25:40.669Z,5.66
2022-12-27T14:28:59.883Z,5.45
2022-12-27T14:32:04.482Z,5.39
2022-12-27T14:35:26.188Z,5.25
2022-12-27T14:38:38.754Z,5.21
2022-12-27T14:42:02.452Z,5.09
2022-12-27T14:45:20.174Z,4.96
2022-12-27T14:48:23.728Z,4.94
2022-12-27T14:52:10.529Z,4.91
2022-12-27T14:55:22.795Z,4.82
2022-12-27T14:58:21.405Z,4.78
2022-12-27T15:01:10.297Z,4.64
2022-12-27T15:04:05.097Z,4.56
2022-12-27T15:07:16.597Z,4.57
2022-12-27T15:09:58.580Z,4.46
2022-12-27T15:12:41.869Z,4.48
2022-12-27T15:15:37.357Z,4.48
2022-12-27T15:18:37.445Z,4.46
2022-12-27T15:21:28.235Z,4.44
2022-12-27T15:24:08.232Z,4.43
2022-12-27T15:26:50.821Z,4.35
2022-12-27T15:29:32.425Z,4.33
2022-12-27T15:32:16.449Z,4.26
2022-12-27T15:35:15.811Z,4.26
2022-12-27T15:38:06.263Z,4.15
2022-12-27T15:41:14.481Z,4.08
2022-12-27T15:44:26.583Z,3.99
2022-12-27T15:47:42.176Z,3.98
2022-12-27T15:50:39.600Z,4.00
2022-12-27T15:54:00.981Z,3.96
2022-12-27T15:56:49.325Z,4.06
2022-12-27T15:59:42.369Z,4.01
2022-12-27T16:02:52.759Z,4.04
2022-12-27T16:05:47.303Z,3.98
2022-12-27T16:08:38.841Z,3.93
2022-12-27T16:11:13.184Z,3.97
2022-12-27T16:13:48.507Z,3.93
2022-12-27T16:16:58.893Z,3.86
2022-12-27T16:19:55.008Z,3.89
2022-12-27T16:22:37.568Z,3.86
2022-12-27T16:25:30.262Z,3.88
2022-12-27T16:28:06.169Z,3.87
2022-12-27T16:30:44.102Z,3.81
2022-12-27T16:33:33.766Z,3.79
2022-12-27T16:36:23.418Z,3.79
2022-12-27T16:39:18.572Z,3.79
2022-12-27T16:42:07.512Z,3.75
2022-12-27T16:45:02.741Z,3.67
2022-12-27T16:48:07.450Z,3.70
2022-12-27T16:50:58.026Z,3.68
2022-12-27T16:54:06.860Z,3.62
2022-12-27T16:56:37.449Z,3.65
2022-12-27T17:00:18.345Z,3.62
2022-12-27T17:02:48.048Z,3.59
2022-12-27T17:05:39.758Z,3.56
2022-12-27T17:08:20.346Z,3.53
2022-12-27T17:11:25.657Z,3.47
2022-12-27T17:14:01.618Z,3.49
2022-12-27T17:16:42.732Z,3.41
2022-12-27T17:19:23.555Z,3.38
2022-12-27T17:22:01.040Z,3.36
2022-12-27T17:24:30.690Z,3.31
2022-12-27T17:27:13.891Z,3.25
2022-12-27T17:30:06.508Z,3.34
2022-12-27T17:33:19.353Z,3.26
2022-12-27T17:36:17.385Z,3.29
2022-12-27T17:39:07.928Z,3.27
2022-12-27T17:42:10.502Z,3.26
2022-12-27T17:44:59.925Z,3.25
2022-12-27T17:47:59.945Z,3.20
2022-12-27T17:50:29.221Z,3.13
2022-12-27T17:53:36.909Z,3.25
2022-12-27T17:56:39.477Z,3.13
2022-12-27T17:59:14.071Z,3.16
2022-12-27T18:01:49.704Z,3.15
2022-12-27T18:04:27.408Z,3.08
2022-12-27T18:06:57.404Z,3.04
2022-12-27T18:09:39.680Z,3.05
2022-12-27T18:12:18.619Z,3.05
2022-12-27T18:14:55.562Z,3.04
2022-12-27T18:17:30.641Z,3.05
2022-12-27T18:19:59.996Z,3.01
2022-12-27T18:22:28.480Z,2.99
2022-12-27T18:24:56.573Z,2.97
2022-12-27T18:27:26.798Z,2.99
2022-12-27T18:29:54.838Z,3.03
2022-12-27T18:32:25.644Z,2.97
2022-12-27T18:35:01.223Z,2.95
2022-12-27T18:37:30.887Z,2.92
2022-12-27T18:40:04.576Z,2.90
2022-12-27T18:42:40.339Z,2.87
2022-12-27T18:45:20.561Z,2.90
2022-12-27T18:47:53.644Z,2.88
2022-12-27T18:50:26.521Z,2.80
2022-12-27T18:53:04.656Z,2.78
2022-12-27T18:55:33.507Z,2.83
2022-12-27T18:58:08.043Z,2.84
2022-12-27T19:00:49.564Z,2.83
2022-12-27T19:03:20.766Z,2.87
2022-12-27T19:06:08.297Z,2.83
2022-12-27T19:08:40.475Z,2.85
2022-12-27T19:11:08.982Z,2.81
2022-12-27T19:13:49.384Z,2.81
2022-12-27T19:16:26.494Z,2.87
2022-12-27T19:18:59.390Z,2.88
2022-12-27T19:21:36.190Z,2.85
2022-12-27T19:24:33.015Z,2.87
2022-12-27T19:27:17.296Z,2.84
2022-12-27T19:29:51.908Z,2.81
2022-12-27T19:32:30.775Z,2.81
2022-12-27T19:35:02.953Z,2.85
2022-12-27T19:37:35.589Z,2.83
2022-12-27T19:40:03.866Z,2.77
2022-12-27T19:42:35.101Z,2.68
2022-12-27T19:45:03.914Z,2.58
2022-12-27T19:47:33.015Z,2.68
2022-12-27T19:50:01.023Z,2.70
2022-12-27T19:52:29.333Z,2.61
2022-12-27T19:55:06.576Z,2.68
2022-12-27T19:57:34.959Z,2.56
2022-12-27T20:00:12.094Z,2.65
2022-12-27T20:02:40.608Z,2.71
2022-12-27T20:05:11.325Z,2.67
2022-12-27T20:07:41.082Z,2.77
2022-12-27T20:10:15.597Z,2.80
2022-12-27T20:12:43.742Z,2.84
2022-12-27T20:15:12.200Z,2.90
2022-12-27T20:17:44.744Z,2.99
2022-12-27T20:20:13.827Z,3.04
2022-12-27T20:22:41.777Z,3.10
2022-12-27T20:25:11.876Z,3.24
2022-12-27T20:27:40.042Z,3.26
2022-12-27T20:30:10.379Z,3.34
2022-12-27T20:32:38.794Z,3.40
2022-12-27T20:35:08.471Z,3.41
2022-12-27T20:37:36.226Z,3.38
2022-12-27T20:40:04.620Z,3.44
2022-12-27T20:42:34.156Z,3.48
2022-12-27T20:45:02.112Z,3.50
2022-12-27T20:47:30.098Z,3.60
2022-12-27T20:49:58.176Z,3.68
2022-12-27T20:52:31.008Z,3.68
2022-12-27T20:54:59.435Z,3.77
2022-12-27T20:57:27.884Z,3.77
2022-12-27T20:59:57.195Z,3.77
2022-12-27T21:02:25.338Z,3.88
2022-12-27T21:04:53.417Z,3.91
2022-12-27T21:07:22.390Z,3.95
2022-12-27T21:09:50.489Z,3.98
2022-12-27T21:14:47.322Z,3.94
2022-12-27T21:17:16.903Z,3.94
2022-12-27T21:19:45.057Z,3.99
2022-12-27T21:22:13.032Z,4.01
2022-12-27T21:24:41.002Z,4.01
2022-12-27T21:27:09.073Z,4.02
2022-12-27T21:29:37.115Z,4.06
2022-12-27T21:32:05.665Z,4.08
2022-12-27T21:34:35.242Z,4.03
2022-12-27T21:37:08.679Z,3.97
2022-12-27T21:39:39.614Z,3.99
2022-12-27T21:42:07.656Z,3.99
2022-12-27T21:44:36.981Z,4.04
2022-12-27T21:47:05.163Z,4.03
2022-12-27T21:49:34.987Z,4.07
2022-12-27T21:52:03.053Z,4.10
2022-12-27T21:54:31.008Z,4.14
2022-12-27T21:56:59.007Z,4.17
2022-12-27T21:59:26.930Z,4.14
2022-12-27T22:01:54.963Z,4.15
2022-12-27T22:04:23.077Z,4.15
2022-12-27T22:06:52.388Z,4.14
2022-12-27T22:09:20.356Z,4.12
2022-12-27T22:11:48.838Z,4.16
2022-12-27T22:14:18.720Z,4.11
2022-12-27T22:16:49.880Z,4.16
2022-12-27T22:19:17.880Z,4.15
2022-12-27T22:21:45.970Z,4.13
2022-12-27T22:24:19.448Z,4.02
2022-12-27T22:26:48.445Z,3.98
2022-12-27T22:29:17.338Z,4.01
2022-12-27T22:31:45.397Z,3.94
2022-12-27T22:34:13.329Z,3.93
2022-12-27T22:36:41.417Z,3.86
2022-12-27T22:39:09.669Z,3.87
2022-12-27T22:41:38.999Z,3.86
2022-12-27T22:44:09.726Z,3.91
2022-12-27T22:47:15.864Z,3.96
2022-12-27T22:49:26.524Z,3.91
2022-12-27T22:51:54.565Z,3.92
2022-12-27T22:55:02.948Z,3.86
2022-12-27T22:57:12.043Z,3.79
2022-12-27T22:59:40.039Z,3.75
2022-12-27T23:02:08.074Z,3.71
2022-12-27T23:04:36.613Z,3.55
2022-12-27T23:07:05.153Z,3.49
2022-12-27T23:09:36.524Z,3.38
2022-12-27T23:12:09.030Z,3.38
2022-12-27T23:14:38.641Z,3.35
2022-12-27T23:17:06.408Z,3.39
2022-12-27T23:19:34.354Z,3.41
2022-12-27T23:22:02.326Z,3.39
2022-12-27T23:24:30.272Z,3.36
2022-12-27T23:26:58.263Z,3.40
2022-12-27T23:29:26.516Z,3.36
2022-12-27T23:31:56.385Z,3.43
2022-12-27T23:34:28.242Z,3.54
2022-12-27T23:36:57.059Z,3.64
2022-12-27T23:39:25.164Z,3.66
2022-12-27T23:41:53.225Z,3.78
2022-12-27T23:44:34.210Z,3.81
2022-12-27T23:47:06.171Z,3.87
2022-12-27T23:49:34.551Z,3.95
2022-12-27T23:52:02.748Z,3.92
2022-12-27T23:54:30.787Z,4.00
2022-12-27T23:56:58.784Z,4.01
2022-12-27T23:59:46.890Z,4.07
